createdAt,value
2017-11-07T17:44:24.212Z,44.97
2017-11-07T17:46:52.716Z,44.90
2017-11-07T18:03:12.384Z,43.21
2017-11-07T18:05:39.905Z,54.95
2017-11-07T18:08:07.441Z,61.17
2017-11-07T18:10:35.108Z,68.98
2017-11-07T18:13:02.638Z,74.74
2017-11-07T18:15:30.160Z,78.56
2017-11-07T18:17:57.936Z,80.55
2017-11-07T18:20:25.461Z,83.15
2017-11-07T18:22:52.977Z,85.04
2017-11-07T18:25:20.645Z,86.09
2017-11-07T18:27:48.161Z,86.49
2017-11-07T18:30:15.686Z,87.05
2017-11-07T18:32:43.378Z,87.72
2017-11-07T18:35:10.905Z,88.09
2017-11-07T18:37:38.416Z,88.25
2017-11-07T18:40:05.969Z,88.33
2017-11-07T18:42:33.480Z,88.73
2017-11-07T18:45:01.027Z,89.20
2017-11-07T18:47:28.890Z,89.65
2017-11-07T18:49:56.417Z,88.87
2017-11-07T18:52:23.927Z,89.02
2017-11-07T18:54:51.469Z,89.37
2017-11-07T18:57:19.010Z,89.68
2017-11-07T18:59:46.557Z,89.27
2017-11-07T19:02:14.081Z,90.17
2017-11-07T19:04:41.724Z,89.65
2017-11-07T19:07:09.275Z,89.71
2017-11-07T19:09:36.796Z,90.10
2017-11-07T19:12:04.849Z,89.95
2017-11-07T19:14:32.378Z,90.62
2017-11-07T19:16:59.900Z,88.93
2017-11-07T19:19:27.524Z,88.89
2017-11-07T19:21:55.113Z,88.92
2017-11-07T19:24:22.651Z,89.32
2017-11-07T19:26:50.177Z,88.88
2017-11-07T19:29:17.855Z,89.30
2017-11-07T19:31:45.375Z,89.23
2017-11-07T19:34:12.984Z,89.37
2017-11-07T19:36:40.559Z,89.60
2017-11-07T19:39:08.101Z,88.97
2017-11-07T19:41:35.704Z,89.38
2017-11-07T19:44:03.241Z,88.68
2017-11-07T19:46:30.800Z,88.60
2017-11-07T19:48:58.405Z,88.51
2017-11-07T19:51:25.937Z,88.35
2017-11-07T19:53:53.466Z,88.97
2017-11-07T19:56:21.469Z,88.86
2017-11-07T19:58:49.020Z,89.34
2017-11-07T20:01:16.549Z,88.49
2017-11-07T20:03:44.096Z,89.28
2017-11-07T20:06:11.635Z,89.02
2017-11-07T20:08:39.210Z,88.72
2017-11-07T20:11:06.728Z,90.25
2017-11-07T20:13:34.265Z,89.29
2017-11-07T20:16:01.813Z,88.72
2017-11-07T20:18:29.333Z,89.25
2017-11-07T20:20:57.101Z,88.83
2017-11-07T20:23:24.656Z,89.33
2017-11-07T20:25:52.186Z,89.76
2017-11-07T20:28:19.743Z,89.29
2017-11-07T20:30:47.254Z,89.64
2017-11-07T20:33:14.828Z,89.86
2017-11-07T20:35:42.362Z,90.30
2017-11-07T20:38:09.897Z,90.07
2017-11-07T20:40:37.440Z,90.39
2017-11-07T20:43:04.965Z,89.93
2017-11-07T20:45:32.629Z,90.68
2017-11-07T20:48:00.157Z,90.68
2017-11-07T20:50:28.688Z,90.67
2017-11-07T20:52:56.255Z,90.79
2017-11-07T20:55:23.782Z,90.72
2017-11-07T20:57:51.823Z,90.71
2017-11-07T21:00:19.360Z,91.23
2017-11-07T21:02:46.899Z,90.98
2017-11-07T21:05:14.448Z,91.36
2017-11-07T21:07:41.979Z,91.12
2017-11-07T21:10:09.564Z,91.53
2017-11-07T21:12:37.090Z,91.45
2017-11-07T21:15:04.626Z,91.87
2017-11-07T21:17:32.176Z,91.91
2017-11-07T21:19:59.708Z,91.52
2017-11-07T21:22:27.257Z,91.51
2017-11-07T21:24:54.913Z,91.85
2017-11-07T21:27:22.446Z,91.87
2017-11-07T21:29:49.989Z,92.13
2017-11-07T21:32:17.534Z,92.13
2017-11-07T21:34:47.279Z,92.41
2017-11-07T21:37:14.810Z,92.86
2017-11-07T21:39:42.347Z,92.85
2017-11-07T21:42:09.929Z,92.88
2017-11-07T21:44:37.451Z,92.99
2017-11-07T21:47:04.977Z,93.00
2017-11-07T21:49:32.571Z,93.00
2017-11-07T21:52:00.106Z,93.14
2017-11-07T21:54:27.628Z,93.08
2017-11-07T21:56:55.300Z,93.21
2017-11-07T21:59:22.825Z,93.04
2017-11-07T22:01:50.354Z,92.83
2017-11-07T22:04:17.936Z,93.13
2017-11-07T22:06:46.021Z,92.96
2017-11-07T22:09:13.548Z,92.91
2017-11-07T22:11:41.086Z,92.89
2017-11-07T22:14:09.046Z,92.87
2017-11-07T22:16:42.197Z,92.58
2017-11-07T22:19:13.398Z,93.13
2017-11-07T22:21:40.920Z,92.93
2017-11-07T22:24:08.442Z,92.98
2017-11-07T22:26:36.336Z,92.72
2017-11-07T22:29:03.866Z,93.15
2017-11-07T22:31:31.389Z,92.95
2017-11-07T22:33:58.969Z,93.47
2017-11-07T22:36:26.510Z,93.50
2017-11-07T22:38:54.034Z,93.52
2017-11-07T22:41:21.618Z,93.90
2017-11-07T22:43:49.145Z,93.55
2017-11-07T22:46:16.669Z,94.01
2017-11-07T22:48:44.544Z,94.18
2017-11-07T22:51:12.130Z,93.95
2017-11-07T22:53:39.707Z,94.24
2017-11-07T22:56:07.416Z,94.18
2017-11-07T22:58:34.950Z,94.27
2017-11-07T23:01:02.495Z,94.22
2017-11-07T23:03:30.072Z,94.42
2017-11-07T23:06:00.434Z,94.33
2017-11-07T23:08:27.969Z,94.89
2017-11-07T23:10:55.578Z,94.74
2017-11-07T23:13:29.674Z,94.77
2017-11-07T23:15:57.224Z,95.11
2017-11-07T23:18:24.818Z,94.96
2017-11-07T23:20:52.457Z,94.87
2017-11-07T23:23:19.985Z,94.98
2017-11-07T23:25:47.712Z,95.01
2017-11-07T23:28:15.237Z,95.10
2017-11-07T23:30:42.769Z,95.18
2017-11-07T23:33:10.313Z,95.34
2017-11-07T23:35:37.846Z,95.37
2017-11-07T23:38:05.577Z,95.33
2017-11-07T23:40:33.101Z,95.01
2017-11-07T23:43:00.629Z,94.88
2017-11-07T23:45:28.488Z,95.01
2017-11-07T23:47:56.014Z,95.37
2017-11-07T23:50:25.404Z,95.29
2017-11-07T23:52:53.037Z,95.36
2017-11-07T23:55:20.552Z,95.41
2017-11-07T23:57:48.077Z,95.33
